Airfield :
LOGIN :

Register | Disclaimer

   EN    FR    IT 

 










Legend :    VFR   Marginal VFR   IFR   Intensive IFR   Very Intensive IFR
Visi :
Ceiling :
>= 8 km
>= 3000ft
5 to 8 km
1000 to 3000 ft
1500m to 5 km
500 to 1000 ft
800 to 1500m
200 to 500 ft
< 800m
< 200 ft
Symbols :   Thunderstorms  Fog  Heavy snow  Heavy precipitations  Wind > 20 kt
SIGMETs :     Misc.  Thunderstorms  Icing  Turbulence  Mountain Waves  Volcanic Ashes






- Airport Elevation : 144 ft
- IATA code : PGF


LFMP - Perpignan

CURRENT METAR :
  • 270200Z AUTO 22005KT CAVOK 20/12 Q1014

EXPIRED METARs :
  • 270130Z AUTO 18004KT CAVOK 20/12 Q1015
  • 270100Z AUTO 25008KT CAVOK 22/11 Q1014
  • 270030Z AUTO 26009KT CAVOK 22/11 Q1015
  • 270000Z AUTO 27008KT CAVOK 23/12 Q1015
  • 262330Z AUTO 26008KT CAVOK 23/11 Q1015

TAF TAF LFMP
Valid from the 26 at 15:00 until the 27 at 15:00 UTC


261400Z 2615/2715 29010KT 9999 SCT070TCU
TEMPO 2615/2617 SHRA SCT040CB
PROB40
TEMPO 2615/2617 30015G25KT 3000 TSRA BKN012 BKN040CB
BECMG 2617/2619 CAVOK
BECMG 2706/2708 VRB03KT
BECMG 2711/2713 11010KT
ATIS : +33 4 68 63 75 12



MET'MAP, your aeronautical weather chart ! - Copyright ORBIFLY December 2007 - Disclaimer

ORBIFLY MET'MAP TEAM :

Programming & Development : Alexandra Zaïnal
Concept & original design : Baudouin d'Aumeries
Assistance for programming : Marc-Olivier Méhu
Technical & hardware support : Manuel Goepfert

Contact : metmap@orbifly.com




SOURCES & CREDITS :

   NOAA